Time;durP1;ratioP1;P1;durP2;ratioP2;P2;SDS_P1;SDS_P2;PMS_P1;PMS_P2;Temp;Humidity;BMP_temperature;BMP_pressure;BME280_temperature;BME280_humidity;BME280_pressure;Samples;Min_cycle;Max_cycle;Signal;HPM_P1;HPM_P2
2023/01/26 00:02:27;;;;;;;14.57;5.63;;;5.40;81.90;;;;;;5049164;28;20226;-76
2023/01/26 00:04:55;;;;;;;14.73;7.37;;;5.40;81.90;;;;;;5051793;28;20669;-76
2023/01/26 00:07:23;;;;;;;19.00;7.73;;;5.30;82.00;;;;;;5047263;28;20191;-76
2023/01/26 00:09:51;;;;;;;17.97;7.17;;;5.30;82.20;;;;;;5057278;28;20202;-76
2023/01/26 00:12:20;;;;;;;16.57;6.83;;;5.30;82.20;;;;;;5052696;28;20225;-77
2023/01/26 00:14:50;;;;;;;14.47;7.07;;;5.30;82.10;;;;;;5046787;28;20657;-77
2023/01/26 00:17:25;;;;;;;18.70;7.37;;;5.40;82.10;;;;;;5051138;28;20261;-77
2023/01/26 00:19:55;;;;;;;16.60;6.70;;;5.40;82.10;;;;;;5047653;28;20687;-77
2023/01/26 00:22:25;;;;;;;18.60;7.33;;;5.30;82.00;;;;;;5051111;28;20492;-77
2023/01/26 00:24:54;;;;;;;16.00;7.03;;;5.30;82.00;;;;;;5050088;28;20192;-76
2023/01/26 00:27:22;;;;;;;17.17;6.83;;;5.30;82.00;;;;;;5052049;28;20560;-75
2023/01/26 00:29:52;;;;;;;14.07;6.70;;;5.30;82.10;;;;;;5050184;28;20606;-76
2023/01/26 00:32:20;;;;;;;16.53;7.20;;;5.40;82.30;;;;;;5048802;28;20190;-76
2023/01/26 00:34:48;;;;;;;13.63;6.10;;;5.40;82.00;;;;;;5045779;28;20203;-78
2023/01/26 00:37:17;;;;;;;18.63;6.57;;;5.40;81.90;;;;;;5049451;28;20222;-77
2023/01/26 00:39:45;;;;;;;13.47;5.97;;;5.40;81.90;;;;;;5048391;28;20253;-76
2023/01/26 00:42:14;;;;;;;12.63;5.70;;;5.40;81.70;;;;;;5045130;28;20225;-76
2023/01/26 00:44:43;;;;;;;18.10;6.80;;;5.50;81.70;;;;;;5048340;28;20568;-77
2023/01/26 00:47:14;;;;;;;15.53;6.80;;;5.50;81.70;;;;;;5050165;28;20232;-77
2023/01/26 00:49:42;;;;;;;15.13;7.20;;;5.50;81.70;;;;;;5051816;28;20193;-76
2023/01/26 00:52:11;;;;;;;13.80;6.50;;;5.50;81.50;;;;;;5043363;28;20197;-75
2023/01/26 00:54:40;;;;;;;13.70;5.97;;;5.50;81.50;;;;;;5043990;28;20245;-76
2023/01/26 00:57:08;;;;;;;18.53;6.23;;;5.60;81.50;;;;;;5050590;28;20205;-77
2023/01/26 00:59:37;;;;;;;14.13;6.73;;;5.50;81.40;;;;;;5050720;28;20272;-75
2023/01/26 01:02:05;;;;;;;12.50;6.00;;;5.60;81.50;;;;;;5056614;28;20201;-76
2023/01/26 01:04:35;;;;;;;15.80;7.67;;;5.60;81.50;;;;;;5052494;28;20211;-77
2023/01/26 01:07:03;;;;;;;13.47;5.90;;;5.60;81.50;;;;;;5056550;28;20279;-77
2023/01/26 01:09:31;;;;;;;13.63;6.67;;;5.50;81.30;;;;;;5053788;28;20248;-77
2023/01/26 01:12:00;;;;;;;18.07;7.50;;;5.60;81.40;;;;;;5049599;28;20582;-76
2023/01/26 01:14:28;;;;;;;16.17;6.67;;;5.50;81.30;;;;;;5049105;28;20204;-76
2023/01/26 01:16:57;;;;;;;16.43;7.03;;;5.60;81.50;;;;;;5051017;28;20204;-77
2023/01/26 01:19:26;;;;;;;13.83;6.10;;;5.60;81.50;;;;;;5054127;28;20663;-76
2023/01/26 01:21:55;;;;;;;12.47;5.83;;;5.60;81.30;;;;;;5049883;28;20196;-77
2023/01/26 01:24:24;;;;;;;13.43;6.83;;;5.60;81.40;;;;;;5049358;28;20259;-75
2023/01/26 01:26:53;;;;;;;17.50;8.00;;;5.60;81.30;;;;;;5046996;28;20260;-76
2023/01/26 01:29:21;;;;;;;21.03;8.70;;;5.60;81.30;;;;;;5053211;28;20214;-77
2023/01/26 01:31:49;;;;;;;17.37;7.53;;;5.50;81.40;;;;;;5048763;28;20211;-77
2023/01/26 01:34:18;;;;;;;14.07;7.50;;;5.50;81.40;;;;;;5036002;28;20471;-77
2023/01/26 01:36:46;;;;;;;14.40;6.47;;;5.50;81.50;;;;;;5046007;28;20191;-78
2023/01/26 01:39:16;;;;;;;17.33;8.00;;;5.40;81.90;;;;;;5032194;28;20192;-79
2023/01/26 01:41:47;;;;;;;17.33;6.90;;;5.40;81.90;;;;;;5045332;28;20192;-78
2023/01/26 01:44:17;;;;;;;15.80;7.43;;;5.40;81.80;;;;;;5042305;28;20270;-77
2023/01/26 01:46:53;;;;;;;17.70;6.63;;;5.30;82.20;;;;;;5045878;28;20280;-78
2023/01/26 01:49:25;;;;;;;16.60;8.00;;;5.30;82.10;;;;;;5050387;28;20437;-77
2023/01/26 01:52:00;;;;;;;16.30;7.37;;;5.30;82.30;;;;;;5042676;28;20258;-77
2023/01/26 01:54:34;;;;;;;14.83;7.37;;;5.40;82.70;;;;;;5048083;28;20204;-76
2023/01/26 01:57:14;;;;;;;14.90;6.90;;;5.40;82.60;;;;;;5048507;28;20194;-78
2023/01/26 01:59:46;;;;;;;16.75;7.40;;;5.40;83.20;;;;;;5043665;28;20940;-77
2023/01/26 02:02:15;;;;;;;14.97;6.50;;;5.40;82.50;;;;;;5048625;28;20720;-77
2023/01/26 02:04:44;;;;;;;16.60;7.17;;;5.40;82.70;;;;;;5047371;28;20286;-77
2023/01/26 02:07:12;;;;;;;17.33;7.90;;;5.40;82.70;;;;;;5044067;28;20199;-77
2023/01/26 02:12:32;;;;;;;18.30;8.60;;;5.40;82.80;;;;;;5044748;28;20502;-77
2023/01/26 02:15:02;;;;;;;17.03;7.27;;;5.50;83.30;;;;;;5050679;28;20914;-75
2023/01/26 02:17:31;;;;;;;15.60;7.83;;;5.50;83.70;;;;;;5053595;28;20913;-76
2023/01/26 02:20:08;;;;;;;14.97;7.73;;;5.50;83.60;;;;;;5044037;28;20210;-76
2023/01/26 02:22:44;;;;;;;14.70;7.77;;;5.50;83.40;;;;;;5041310;28;20199;-75
2023/01/26 02:25:24;;;;;;;19.43;7.37;;;5.50;83.80;;;;;;5046740;28;20233;-76
2023/01/26 02:27:54;;;;;;;18.93;7.97;;;5.50;84.00;;;;;;5054456;28;20200;-77
2023/01/26 02:30:24;;;;;;;16.87;8.13;;;5.50;84.30;;;;;;5040475;28;20195;-76
2023/01/26 02:32:52;;;;;;;21.00;9.53;;;5.50;84.30;;;;;;5047398;28;20617;-78
2023/01/26 02:35:21;;;;;;;23.85;10.18;;;5.50;84.60;;;;;;5046181;28;20828;-76
2023/01/26 02:37:49;;;;;;;19.97;8.23;;;5.50;84.40;;;;;;5047496;28;20651;-77
2023/01/26 02:40:30;;;;;;;25.20;9.63;;;5.50;84.70;;;;;;5042660;28;20204;-75
2023/01/26 02:42:58;;;;;;;20.70;9.17;;;5.50;85.00;;;;;;5054930;28;20199;-77
2023/01/26 02:45:29;;;;;;;22.33;9.83;;;5.40;85.00;;;;;;5053600;28;20282;-78
2023/01/26 02:48:01;;;;;;;21.20;9.40;;;5.40;85.00;;;;;;5058438;28;20194;-77
2023/01/26 02:50:28;;;;;;;21.60;8.57;;;5.40;85.20;;;;;;5057926;28;20252;-77
2023/01/26 02:52:56;;;;;;;25.13;9.40;;;5.30;85.40;;;;;;5051314;28;20202;-78
2023/01/26 02:55:25;;;;;;;15.70;7.97;;;5.30;85.60;;;;;;5053661;28;20198;-77
2023/01/26 02:57:55;;;;;;;22.70;9.83;;;5.40;85.40;;;;;;5046910;28;20202;-77
2023/01/26 03:00:26;;;;;;;22.48;10.77;;;5.30;85.50;;;;;;5054476;28;20733;-78
2023/01/26 03:02:57;;;;;;;21.90;9.00;;;5.30;85.90;;;;;;5050004;28;20198;-78
2023/01/26 03:05:26;;;;;;;22.90;8.83;;;5.40;85.80;;;;;;5044678;28;20206;-78
2023/01/26 03:07:54;;;;;;;20.17;9.03;;;5.30;86.00;;;;;;5054681;28;20204;-77
2023/01/26 03:10:25;;;;;;;23.63;9.83;;;5.30;86.00;;;;;;5046722;28;20217;-77
2023/01/26 03:12:54;;;;;;;25.57;11.10;;;5.30;85.80;;;;;;5044363;28;20329;-78
2023/01/26 03:15:42;;;;;;;17.23;8.27;;;5.40;85.80;;;;;;5050197;28;20863;-77
2023/01/26 03:29:12;;;;;;;20.60;8.97;;;5.40;86.70;;;;;;5047110;28;20191;-78
2023/01/26 03:31:42;;;;;;;23.43;9.77;;;5.40;86.60;;;;;;5055057;28;20655;-78
2023/01/26 03:34:10;;;;;;;26.00;10.87;;;5.40;86.60;;;;;;5045578;28;20197;-77
2023/01/26 03:36:39;;;;;;;19.87;9.37;;;5.30;86.70;;;;;;5044873;28;20251;-78
2023/01/26 03:39:07;;;;;;;23.93;11.00;;;5.40;87.50;;;;;;5039555;28;20225;-77
2023/01/26 03:58:11;;;;;;;24.40;11.23;;;5.30;87.50;;;;;;5049797;28;20499;-78
2023/01/26 04:00:40;;;;;;;18.87;8.87;;;5.30;87.60;;;;;;5051038;28;20259;-78
2023/01/26 04:08:44;;;;;;;22.03;10.97;;;5.30;87.60;;;;;;5052416;28;20199;-79
2023/01/26 04:11:13;;;;;;;27.17;12.35;;;5.30;87.60;;;;;;5047088;28;20429;-78
2023/01/26 04:22:01;;;;;;;25.55;11.57;;;5.30;88.10;;;;;;5046223;28;20439;-77
2023/01/26 04:24:29;;;;;;;25.07;10.57;;;5.30;88.00;;;;;;5054113;28;20222;-78
2023/01/26 04:26:58;;;;;;;26.23;10.63;;;5.30;88.00;;;;;;5051829;28;20596;-78
2023/01/26 04:29:26;;;;;;;20.07;9.33;;;5.40;88.10;;;;;;5048979;28;20206;-76
2023/01/26 04:31:54;;;;;;;22.23;10.47;;;5.40;88.00;;;;;;5048200;28;20237;-76
2023/01/26 04:34:24;;;;;;;26.70;12.05;;;5.40;87.90;;;;;;5049863;28;20504;-77
2023/01/26 04:36:53;;;;;;;24.00;10.10;;;5.40;88.00;;;;;;5051378;28;20257;-78
2023/01/26 04:39:21;;;;;;;23.23;10.00;;;5.50;88.00;;;;;;5049576;28;20201;-78
2023/01/26 04:41:49;;;;;;;24.43;10.37;;;5.40;87.90;;;;;;5049842;28;20201;-77
2023/01/26 04:44:18;;;;;;;24.83;10.63;;;5.50;87.90;;;;;;5049077;28;21001;-79
2023/01/26 04:46:47;;;;;;;24.77;10.80;;;5.40;87.90;;;;;;5048708;28;20243;-76
2023/01/26 04:49:16;;;;;;;19.63;9.63;;;5.40;88.20;;;;;;5049460;28;20198;-78
2023/01/26 04:51:45;;;;;;;23.33;10.43;;;5.40;88.30;;;;;;5052975;28;20435;-77
2023/01/26 04:54:14;;;;;;;24.67;9.73;;;5.40;88.50;;;;;;5050510;28;20239;-78
2023/01/26 04:56:42;;;;;;;25.50;9.63;;;5.30;88.50;;;;;;5045440;28;20209;-78
2023/01/26 04:59:13;;;;;;;27.60;10.47;;;5.30;88.40;;;;;;5044821;28;20218;-80
2023/01/26 05:01:41;;;;;;;25.60;11.10;;;5.20;88.40;;;;;;5050567;28;20209;-77
2023/01/26 05:04:12;;;;;;;22.63;9.27;;;5.30;88.50;;;;;;5051591;28;20196;-78
2023/01/26 05:06:41;;;;;;;22.70;10.90;;;5.30;88.30;;;;;;5052378;28;20215;-77
2023/01/26 05:09:11;;;;;;;26.53;10.37;;;5.30;88.40;;;;;;5052970;28;20203;-76
2023/01/26 05:11:40;;;;;;;26.43;10.60;;;5.30;88.40;;;;;;5042011;28;20886;-79
2023/01/26 05:14:08;;;;;;;30.20;11.03;;;5.30;88.60;;;;;;5047574;28;20204;-77
2023/01/26 05:16:36;;;;;;;22.20;9.43;;;5.20;88.90;;;;;;5043779;28;20261;-77
2023/01/26 05:19:05;;;;;;;23.13;10.50;;;5.20;88.80;;;;;;5051172;28;20224;-78
2023/01/26 05:21:33;;;;;;;21.87;10.00;;;5.20;88.90;;;;;;5046605;28;20227;-77
2023/01/26 05:24:01;;;;;;;24.92;11.02;;;5.20;88.80;;;;;;5048706;28;20896;-78
2023/01/26 05:26:31;;;;;;;25.33;10.90;;;5.20;89.10;;;;;;5050853;28;20221;-77
2023/01/26 05:29:00;;;;;;;24.57;11.63;;;5.10;89.20;;;;;;5050418;28;20226;-77
2023/01/26 05:31:28;;;;;;;27.13;10.73;;;5.20;89.20;;;;;;5045102;28;20278;-77
2023/01/26 05:33:56;;;;;;;22.70;10.73;;;5.10;89.30;;;;;;5053541;28;20191;-77
2023/01/26 05:36:25;;;;;;;25.07;10.77;;;5.10;89.10;;;;;;5053700;28;20262;-76
2023/01/26 05:38:53;;;;;;;24.27;9.87;;;5.10;89.30;;;;;;5055406;28;20226;-76
2023/01/26 05:41:24;;;;;;;27.83;11.30;;;5.10;89.40;;;;;;5048414;28;20203;-76
2023/01/26 05:43:54;;;;;;;23.60;10.83;;;5.00;89.40;;;;;;5042903;28;20196;-80
2023/01/26 05:46:22;;;;;;;24.13;12.00;;;5.00;89.60;;;;;;5043880;28;20856;-79
2023/01/26 05:48:51;;;;;;;26.73;11.17;;;4.90;89.80;;;;;;5050892;28;20619;-79
2023/01/26 05:51:19;;;;;;;26.40;9.97;;;5.00;90.00;;;;;;5049174;28;20564;-77
2023/01/26 05:53:47;;;;;;;25.57;10.67;;;4.90;90.00;;;;;;5055476;28;20202;-78
2023/01/26 05:56:16;;;;;;;27.87;10.80;;;5.00;90.00;;;;;;5052379;28;20240;-77
2023/01/26 05:58:44;;;;;;;25.80;11.20;;;5.00;89.90;;;;;;5047613;28;20207;-76
2023/01/26 06:01:14;;;;;;;23.57;10.40;;;5.00;89.80;;;;;;5055441;28;20647;-78
2023/01/26 06:03:42;;;;;;;20.97;9.17;;;5.00;90.00;;;;;;5051436;28;20281;-77
2023/01/26 06:06:10;;;;;;;23.57;10.63;;;5.00;89.80;;;;;;5047861;28;20212;-79
2023/01/26 06:08:39;;;;;;;25.90;10.70;;;5.10;89.70;;;;;;5050458;28;20206;-79
2023/01/26 06:11:07;;;;;;;23.30;10.23;;;5.00;89.80;;;;;;5049862;28;20204;-78
2023/01/26 06:13:35;;;;;;;23.23;10.03;;;5.00;90.30;;;;;;5040595;28;20227;-77
2023/01/26 06:16:04;;;;;;;28.17;10.23;;;5.00;90.00;;;;;;5050147;28;20280;-77
2023/01/26 06:18:34;;;;;;;21.73;9.27;;;5.10;90.00;;;;;;5049896;28;20245;-79
2023/01/26 06:21:02;;;;;;;22.00;10.33;;;5.10;89.90;;;;;;5045540;28;20251;-78
2023/01/26 06:23:30;;;;;;;20.53;9.20;;;5.10;90.00;;;;;;5048764;28;20261;-78
2023/01/26 06:25:59;;;;;;;26.20;11.00;;;5.10;90.00;;;;;;5047938;28;20246;-78
2023/01/26 06:28:28;;;;;;;23.53;10.20;;;5.10;90.00;;;;;;5047378;28;20246;-79
2023/01/26 06:31:00;;;;;;;22.77;10.23;;;5.00;90.20;;;;;;5047017;28;20225;-77
2023/01/26 06:33:29;;;;;;;25.67;10.53;;;5.00;90.10;;;;;;5047722;28;20228;-77
2023/01/26 06:36:01;;;;;;;27.13;10.70;;;5.00;90.20;;;;;;5044807;28;20533;-78
2023/01/26 06:38:30;;;;;;;23.07;9.97;;;5.10;90.10;;;;;;5049661;28;20195;-77
2023/01/26 06:41:01;;;;;;;25.20;10.17;;;5.00;90.10;;;;;;5046701;28;20256;-78
2023/01/26 06:43:30;;;;;;;23.27;10.17;;;5.00;90.20;;;;;;5044300;28;20191;-78
2023/01/26 06:45:59;;;;;;;27.07;11.30;;;5.00;90.20;;;;;;5045330;28;20555;-76
2023/01/26 06:48:29;;;;;;;18.77;9.73;;;4.90;90.30;;;;;;5055554;28;20221;-76
2023/01/26 06:51:06;;;;;;;25.90;10.57;;;4.90;90.40;;;;;;5052420;28;20230;-77
2023/01/26 06:53:37;;;;;;;28.03;10.73;;;4.90;90.40;;;;;;5037997;28;20195;-77
2023/01/26 06:56:06;;;;;;;24.63;11.27;;;5.00;90.60;;;;;;5050490;28;20191;-77
2023/01/26 06:58:34;;;;;;;24.57;11.47;;;5.00;90.70;;;;;;5051393;28;20256;-77
2023/01/26 07:01:02;;;;;;;23.35;11.93;;;5.00;90.80;;;;;;5044618;28;20468;-76
2023/01/26 07:03:31;;;;;;;26.37;10.87;;;5.00;90.90;;;;;;5047810;28;20195;-77
2023/01/26 07:06:01;;;;;;;22.57;10.73;;;5.00;91.10;;;;;;5054359;28;20216;-76
2023/01/26 07:08:29;;;;;;;21.47;9.90;;;5.10;91.10;;;;;;5045347;28;20241;-77
2023/01/26 07:10:57;;;;;;;23.73;9.80;;;5.20;91.00;;;;;;5045150;28;20251;-76
2023/01/26 07:13:26;;;;;;;23.57;11.07;;;5.20;91.00;;;;;;5053409;28;20988;-76
2023/01/26 07:16:10;;;;;;;21.57;10.00;;;5.20;91.00;;;;;;5046759;28;20449;-77
2023/01/26 07:18:42;;;;;;;23.33;11.83;;;5.30;91.00;;;;;;5035770;28;20198;-76
2023/01/26 07:21:13;;;;;;;26.23;13.33;;;5.30;90.80;;;;;;5044520;28;20259;-76
2023/01/26 07:23:42;;;;;;;26.53;11.00;;;5.30;91.00;;;;;;5052206;28;20202;-78
2023/01/26 07:26:11;;;;;;;23.33;9.63;;;5.30;90.80;;;;;;5053514;28;20223;-78
2023/01/26 07:28:39;;;;;;;23.60;8.97;;;5.40;90.70;;;;;;5052847;28;20208;-77
2023/01/26 07:31:10;;;;;;;23.03;10.40;;;5.30;90.70;;;;;;5054005;28;20286;-79
2023/01/26 07:33:39;;;;;;;21.03;9.10;;;5.40;90.70;;;;;;5050973;28;20650;-78
2023/01/26 07:36:07;;;;;;;24.00;10.67;;;5.30;91.00;;;;;;5054484;28;20586;-77
2023/01/26 07:38:37;;;;;;;24.03;9.77;;;5.40;90.60;;;;;;5045436;28;20864;-77
2023/01/26 07:41:09;;;;;;;20.57;9.37;;;5.30;90.70;;;;;;5055646;28;20262;-78
2023/01/26 07:43:38;;;;;;;21.33;9.37;;;5.40;90.70;;;;;;5055428;28;20190;-78
2023/01/26 07:58:04;;;;;;;23.33;10.30;;;5.40;90.40;;;;;;5105854;27;21156;-77
2023/01/26 08:00:32;;;;;;;19.40;9.33;;;5.50;91.20;;;;;;5105043;28;20657;-77
2023/01/26 08:03:00;;;;;;;21.03;9.00;;;5.40;91.10;;;;;;5107041;28;20589;-77
2023/01/26 08:05:29;;;;;;;24.20;9.60;;;5.50;91.20;;;;;;5099070;28;20189;-76
2023/01/26 08:07:58;;;;;;;20.47;9.43;;;5.40;91.30;;;;;;5097582;28;20656;-77
2023/01/26 08:10:26;;;;;;;24.13;10.93;;;5.50;91.20;;;;;;5106343;28;20248;-77
2023/01/26 08:12:55;;;;;;;24.30;10.87;;;5.50;91.30;;;;;;5090519;28;20195;-75
2023/01/26 08:15:25;;;;;;;22.90;9.57;;;5.50;91.40;;;;;;5104860;28;20243;-77
2023/01/26 08:17:54;;;;;;;19.67;9.00;;;5.50;91.30;;;;;;5107183;28;20264;-76
2023/01/26 08:20:23;;;;;;;19.90;9.97;;;5.50;91.30;;;;;;5110883;28;20198;-77
2023/01/26 08:22:51;;;;;;;21.20;9.43;;;5.50;91.50;;;;;;5110522;28;20193;-78
2023/01/26 08:25:19;;;;;;;18.70;9.03;;;5.50;91.30;;;;;;5107967;28;20199;-77
2023/01/26 08:27:48;;;;;;;20.47;9.23;;;5.50;91.40;;;;;;5108195;28;20208;-77
2023/01/26 08:30:17;;;;;;;23.67;10.07;;;5.40;91.30;;;;;;5107881;28;20199;-76
2023/01/26 08:32:47;;;;;;;22.00;9.80;;;5.50;91.40;;;;;;5108552;28;20186;-77
2023/01/26 08:35:15;;;;;;;26.93;9.20;;;5.40;91.40;;;;;;5105199;28;20194;-76
2023/01/26 08:37:44;;;;;;;22.37;10.43;;;5.40;91.40;;;;;;5105313;28;20214;-78
2023/01/26 08:40:13;;;;;;;20.67;10.00;;;5.40;91.50;;;;;;5104259;28;20230;-77
2023/01/26 08:42:41;;;;;;;20.90;8.73;;;5.30;91.30;;;;;;5103748;28;20195;-78
2023/01/26 08:45:11;;;;;;;20.60;9.67;;;5.40;91.40;;;;;;5106527;28;20612;-77
2023/01/26 08:47:39;;;;;;;24.00;10.87;;;5.30;91.50;;;;;;5109380;28;20203;-77
2023/01/26 08:50:10;;;;;;;23.27;9.80;;;5.30;91.70;;;;;;5109239;28;20207;-76
2023/01/26 08:52:39;;;;;;;25.43;10.03;;;5.30;91.60;;;;;;5109803;28;20205;-77
2023/01/26 08:55:08;;;;;;;21.13;9.63;;;5.40;91.50;;;;;;5106079;28;20650;-76
2023/01/26 08:57:36;;;;;;;18.50;9.70;;;5.40;91.60;;;;;;5117047;28;20234;-77
2023/01/26 09:00:06;;;;;;;23.23;9.70;;;5.40;91.80;;;;;;5115942;28;20673;-77
2023/01/26 09:02:34;;;;;;;24.67;8.80;;;5.40;91.60;;;;;;5110274;28;20267;-77
2023/01/26 09:05:02;;;;;;;19.10;9.37;;;5.40;91.60;;;;;;5106810;28;20188;-77
2023/01/26 09:07:34;;;;;;;23.80;10.27;;;5.40;91.50;;;;;;5115486;28;20209;-76
2023/01/26 09:10:02;;;;;;;22.13;10.13;;;5.40;91.60;;;;;;5115561;28;20240;-77
2023/01/26 09:12:30;;;;;;;22.43;10.50;;;5.40;91.70;;;;;;5115482;27;20211;-78
2023/01/26 09:14:58;;;;;;;23.03;10.07;;;5.40;91.80;;;;;;5114148;28;20423;-76
2023/01/26 09:17:27;;;;;;;20.23;9.10;;;5.40;91.80;;;;;;5115842;28;20222;-76
2023/01/26 09:19:55;;;;;;;25.07;10.50;;;5.30;91.90;;;;;;5113710;28;20217;-76
2023/01/26 09:22:23;;;;;;;24.67;9.67;;;5.40;91.80;;;;;;5113841;28;20236;-75
2023/01/26 09:24:53;;;;;;;26.30;10.30;;;5.30;91.90;;;;;;5111671;28;20565;-76
2023/01/26 09:27:21;;;;;;;30.33;11.13;;;5.30;91.90;;;;;;5106608;28;20226;-76
2023/01/26 09:29:51;;;;;;;27.40;10.97;;;5.30;91.80;;;;;;5130090;27;20189;-78
2023/01/26 09:32:19;;;;;;;28.23;11.50;;;5.30;91.90;;;;;;5110970;28;20272;-77
2023/01/26 09:34:48;;;;;;;25.27;10.57;;;5.20;92.00;;;;;;5113221;28;20673;-77
2023/01/26 09:37:17;;;;;;;25.40;10.00;;;5.20;92.10;;;;;;5098403;28;20745;-76
2023/01/26 09:39:48;;;;;;;24.07;10.37;;;5.20;92.20;;;;;;5106061;28;20245;-77
2023/01/26 09:42:49;;;;;;;27.43;11.27;;;5.30;92.20;;;;;;5109962;28;20290;-77
2023/01/26 09:45:31;;;;;;;27.37;11.17;;;5.30;92.20;;;;;;5116395;27;20184;-76
2023/01/26 09:48:15;;;;;;;23.73;10.13;;;5.40;92.20;;;;;;5104869;28;20192;-76
2023/01/26 09:50:48;;;;;;;26.67;11.20;;;5.50;92.20;;;;;;5108777;27;20566;-76
2023/01/26 09:53:20;;;;;;;27.70;10.37;;;5.50;92.10;;;;;;5108984;27;20191;-76
2023/01/26 09:55:49;;;;;;;22.73;9.97;;;5.60;92.00;;;;;;5103033;28;20724;-76
2023/01/26 09:58:28;;;;;;;27.87;10.73;;;5.60;92.00;;;;;;5106890;28;20286;-76
2023/01/26 10:01:01;;;;;;;25.37;11.37;;;5.60;92.00;;;;;;5099542;28;20189;-76
2023/01/26 10:03:35;;;;;;;22.53;10.40;;;5.60;91.90;;;;;;5100467;27;20190;-78
2023/01/26 10:06:13;;;;;;;25.03;10.13;;;5.70;91.90;;;;;;5107991;28;20535;-75
2023/01/26 10:08:43;;;;;;;27.30;11.60;;;5.70;91.90;;;;;;5113991;27;20714;-76
2023/01/26 10:11:19;;;;;;;25.87;11.13;;;5.70;91.80;;;;;;5108907;28;20194;-76
2023/01/26 10:13:55;;;;;;;27.80;12.10;;;5.70;91.80;;;;;;5106977;28;20556;-76
2023/01/26 10:16:24;;;;;;;28.17;11.50;;;5.70;91.70;;;;;;5108421;28;20183;-75
2023/01/26 10:18:58;;;;;;;27.73;11.93;;;5.70;91.80;;;;;;5112821;27;20182;-74
2023/01/26 10:21:32;;;;;;;25.70;10.93;;;5.70;91.80;;;;;;5114310;28;20646;-76
2023/01/26 10:24:02;;;;;;;32.33;12.67;;;5.70;91.80;;;;;;5110659;28;20216;-76
2023/01/26 10:26:32;;;;;;;31.73;11.77;;;5.60;91.90;;;;;;5102288;28;20214;-75
2023/01/26 10:29:04;;;;;;;30.87;13.20;;;5.60;91.90;;;;;;5106268;28;20186;-76
2023/01/26 10:31:34;;;;;;;33.50;12.07;;;5.70;92.00;;;;;;5103137;28;20187;-75
2023/01/26 10:34:12;;;;;;;29.30;13.27;;;5.70;91.90;;;;;;5102778;28;20214;-75
2023/01/26 10:36:43;;;;;;;26.80;12.07;;;5.70;92.10;;;;;;5101934;27;20235;-76
2023/01/26 10:39:13;;;;;;;29.03;10.70;;;5.70;92.10;;;;;;5103530;28;20185;-76
2023/01/26 10:41:57;;;;;;;34.97;12.23;;;5.70;92.10;;;;;;5109995;28;20228;-75
2023/01/26 10:44:32;;;;;;;31.67;12.83;;;5.70;92.00;;;;;;5106711;28;20184;-75
2023/01/26 10:47:07;;;;;;;31.80;12.07;;;5.80;92.10;;;;;;5108531;28;20213;-76
2023/01/26 10:49:35;;;;;;;25.10;11.33;;;5.70;92.20;;;;;;5110935;28;20185;-76
2023/01/26 10:52:16;;;;;;;30.67;12.57;;;5.70;92.30;;;;;;5108428;28;20190;-78
2023/01/26 10:54:45;;;;;;;30.03;12.77;;;5.70;92.40;;;;;;5111066;27;20851;-76
2023/01/26 10:57:26;;;;;;;31.17;12.90;;;5.70;92.40;;;;;;5108806;28;20233;-76
2023/01/26 10:59:58;;;;;;;34.00;15.00;;;5.60;92.50;;;;;;5110523;28;20429;-76
2023/01/26 11:02:28;;;;;;;30.33;12.70;;;5.60;92.80;;;;;;5108817;28;20561;-75
2023/01/26 11:05:22;;;;;;;29.87;13.90;;;5.60;93.00;;;;;;5109914;28;20247;-76
2023/01/26 11:07:54;;;;;;;32.20;12.90;;;5.50;93.00;;;;;;5111717;27;20194;-75
2023/01/26 11:10:31;;;;;;;32.13;14.43;;;5.60;92.90;;;;;;5107969;27;20187;-76
2023/01/26 11:13:15;;;;;;;30.30;13.37;;;5.50;93.10;;;;;;5101815;28;20234;-75
2023/01/26 11:15:47;;;;;;;34.57;14.80;;;5.60;93.20;;;;;;5109909;28;20190;-77
2023/01/26 11:18:41;;;;;;;29.90;12.60;;;5.50;93.40;;;;;;5109683;28;20265;-76
2023/01/26 11:21:17;;;;;;;36.93;14.13;;;5.50;93.50;;;;;;5107970;28;20268;-75
2023/01/26 11:24:00;;;;;;;30.90;12.67;;;5.60;93.40;;;;;;5106266;28;20246;-75
2023/01/26 11:26:58;;;;;;;29.83;12.53;;;5.60;93.60;;;;;;5101979;28;20256;-76
2023/01/26 11:29:46;;;;;;;42.43;14.87;;;5.60;93.40;;;;;;5109259;28;20656;-75
2023/01/26 11:32:26;;;;;;;32.33;12.73;;;5.60;93.40;;;;;;5103674;28;20212;-76
2023/01/26 11:35:05;;;;;;;30.33;12.60;;;5.70;93.40;;;;;;5105032;28;20714;-74
2023/01/26 11:37:40;;;;;;;36.73;13.63;;;5.70;93.50;;;;;;5096507;28;20246;-74
2023/01/26 11:40:32;;;;;;;38.67;13.53;;;5.70;93.50;;;;;;5106083;28;21826;-76
2023/01/26 11:43:16;;;;;;;32.57;12.63;;;5.70;93.50;;;;;;5099500;28;20193;-75
2023/01/26 11:46:11;;;;;;;38.40;13.70;;;5.70;93.50;;;;;;5101009;28;20267;-76
2023/01/26 11:48:51;;;;;;;39.45;16.88;;;5.70;93.60;;;;;;5091312;28;21068;-76
2023/01/26 12:04:46;;;;;;;35.97;15.13;;;5.70;93.50;;;;;;5080327;27;1400220;-75
2023/01/26 12:07:23;;;;;;;35.33;12.97;;;5.90;94.00;;;;;;5106110;28;20193;-75
2023/01/26 12:09:52;;;;;;;35.37;13.83;;;5.90;93.80;;;;;;5111139;28;20192;-75
2023/01/26 12:12:28;;;;;;;34.20;13.03;;;5.90;93.80;;;;;;5103633;28;20206;-74
2023/01/26 12:15:02;;;;;;;36.53;14.00;;;5.90;93.90;;;;;;5093939;28;20202;-77
2023/01/26 12:17:43;;;;;;;31.47;13.53;;;5.80;93.90;;;;;;5103262;28;21014;-75
2023/01/26 12:20:28;;;;;;;32.70;14.60;;;5.80;93.90;;;;;;5113621;28;20192;-74
2023/01/26 12:23:03;;;;;;;34.22;15.32;;;5.80;94.00;;;;;;5103147;28;20791;-75
2023/01/26 12:25:34;;;;;;;36.70;14.10;;;5.80;93.90;;;;;;5100151;28;20196;-76
2023/01/26 12:28:14;;;;;;;35.83;14.70;;;5.90;94.20;;;;;;5106520;28;20320;-74
2023/01/26 12:30:52;;;;;;;32.23;13.90;;;5.90;94.10;;;;;;5107159;28;20192;-75
2023/01/26 12:33:20;;;;;;;36.90;14.63;;;5.90;94.10;;;;;;5113117;28;20705;-75
2023/01/26 12:36:08;;;;;;;29.50;12.87;;;5.90;94.20;;;;;;5104831;28;20227;-76
2023/01/26 12:38:56;;;;;;;41.77;14.93;;;5.90;94.30;;;;;;5103824;28;20192;-75
2023/01/26 12:41:35;;;;;;;36.70;13.70;;;6.00;94.20;;;;;;5109297;28;20617;-74
2023/01/26 12:44:26;;;;;;;34.13;13.30;;;6.00;94.20;;;;;;5105190;28;20270;-74
2023/01/26 12:46:59;;;;;;;31.87;12.87;;;6.00;94.40;;;;;;5103637;28;20594;-74
2023/01/26 12:49:37;;;;;;;33.97;13.30;;;6.00;94.30;;;;;;5108100;28;20192;-76
2023/01/26 12:52:12;;;;;;;43.50;15.17;;;6.00;94.30;;;;;;5068634;28;20571;-76
2023/01/26 12:54:44;;;;;;;37.03;14.83;;;6.00;94.30;;;;;;5100063;28;20242;-76
2023/01/26 12:57:17;;;;;;;36.23;13.53;;;6.00;94.40;;;;;;5105014;28;21176;-74
2023/01/26 12:59:46;;;;;;;33.00;13.33;;;6.00;94.30;;;;;;5099588;28;20189;-74
2023/01/26 13:02:26;;;;;;;34.30;13.10;;;6.00;94.50;;;;;;5104412;28;20249;-74
2023/01/26 13:04:56;;;;;;;34.67;14.13;;;6.00;94.50;;;;;;5097093;28;20218;-77
2023/01/26 13:07:32;;;;;;;33.63;12.83;;;6.00;94.40;;;;;;5092051;28;20203;-76
2023/01/26 13:10:24;;;;;;;41.60;14.87;;;6.00;94.50;;;;;;5086155;28;20199;-75
2023/01/26 13:12:54;;;;;;;31.87;14.03;;;6.00;94.50;;;;;;5089268;28;20192;-75
2023/01/26 13:15:25;;;;;;;36.37;13.87;;;6.00;94.50;;;;;;5087109;28;20199;-74
2023/01/26 13:17:55;;;;;;;36.33;14.07;;;5.90;94.60;;;;;;5095217;28;20252;-75
2023/01/26 13:20:47;;;;;;;33.80;14.27;;;5.90;94.60;;;;;;5093571;28;20233;-75
2023/01/26 13:23:42;;;;;;;29.00;12.93;;;5.90;94.70;;;;;;5087400;28;20255;-75
2023/01/26 13:26:31;;;;;;;37.37;15.20;;;6.00;94.70;;;;;;5090292;28;20282;-75
2023/01/26 13:29:31;;;;;;;31.00;13.70;;;6.00;94.90;;;;;;5086952;28;20255;-75
2023/01/26 13:32:21;;;;;;;33.93;13.30;;;5.90;95.00;;;;;;5090035;28;20194;-75
2023/01/26 13:34:53;;;;;;;37.03;15.63;;;6.00;95.00;;;;;;5088512;28;20910;-77
2023/01/26 13:37:28;;;;;;;31.37;13.47;;;5.90;95.20;;;;;;5087831;28;20240;-76
2023/01/26 13:40:02;;;;;;;31.83;14.17;;;6.00;95.20;;;;;;5087426;28;20241;-75
2023/01/26 13:42:37;;;;;;;30.80;12.73;;;5.90;95.50;;;;;;5089758;28;20244;-74
2023/01/26 13:45:16;;;;;;;29.63;13.13;;;6.00;95.30;;;;;;5088562;28;20251;-75
2023/01/26 13:47:49;;;;;;;33.40;13.57;;;5.90;95.60;;;;;;5089774;28;20192;-74
2023/01/26 13:50:29;;;;;;;30.30;12.63;;;5.80;95.60;;;;;;5092143;28;20210;-74
2023/01/26 13:52:58;;;;;;;32.30;12.30;;;5.90;95.60;;;;;;5086146;28;20193;-75
2023/01/26 13:55:30;;;;;;;31.97;13.07;;;5.90;95.60;;;;;;5090615;28;20706;-75
2023/01/26 13:58:11;;;;;;;29.43;12.57;;;6.00;95.50;;;;;;5091927;28;20250;-75
2023/01/26 14:00:40;;;;;;;29.20;13.95;;;5.90;95.50;;;;;;5084681;28;20437;-76
2023/01/26 14:03:21;;;;;;;27.80;11.63;;;5.90;95.60;;;;;;5089279;28;20236;-74
2023/01/26 14:05:56;;;;;;;32.73;12.50;;;5.90;95.70;;;;;;5091618;28;20190;-74
2023/01/26 14:08:24;;;;;;;30.27;11.00;;;5.90;95.70;;;;;;5090487;28;20189;-74
2023/01/26 14:11:04;;;;;;;26.10;11.37;;;6.00;95.60;;;;;;5089843;28;20184;-76
2023/01/26 14:13:36;;;;;;;25.50;11.83;;;6.00;95.50;;;;;;5090475;28;20634;-75
2023/01/26 14:16:06;;;;;;;25.37;11.23;;;6.10;95.70;;;;;;5088865;28;20198;-75